Time;durP1;ratioP1;P1;durP2;ratioP2;P2;SDS_P1;SDS_P2;PMS_P1;PMS_P2;Temp;Humidity;BMP_temperature;BMP_pressure;BME280_temperature;BME280_humidity;BME280_pressure;Samples;Min_cycle;Max_cycle;Signal;HPM_P1;HPM_P2
2022/01/22 00:00:19;;;;;;;;;;;6.60;99.90;;;;;;6210517;23;19963;-72
2022/01/22 00:02:45;;;;;;;;;;;6.50;99.90;;;;;;6211960;23;20274;-72
2022/01/22 00:05:11;;;;;;;;;;;6.50;99.90;;;;;;6211595;23;19900;-73
2022/01/22 00:07:37;;;;;;;;;;;6.60;99.90;;;;;;6211428;23;19904;-72
2022/01/22 00:10:07;;;;;;;;;;;6.50;99.90;;;;;;6210378;23;19979;-73
2022/01/22 00:15:02;;;;;;;;;;;6.40;99.90;;;;;;6212235;23;19912;-71
2022/01/22 00:17:28;;;;;;;;;;;6.30;99.90;;;;;;6213604;23;19900;-71
2022/01/22 00:19:54;;;;;;;;;;;6.20;99.90;;;;;;6211808;23;20394;-71
2022/01/22 00:22:24;;;;;;;;;;;6.30;99.90;;;;;;6213873;23;20275;-71
2022/01/22 00:24:54;;;;;;;;;;;6.30;99.90;;;;;;6212316;23;19900;-72
2022/01/22 00:27:20;;;;;;;;;;;6.30;99.90;;;;;;6210177;23;20342;-71
2022/01/22 00:29:46;;;;;;;;;;;6.40;99.90;;;;;;6212284;23;19974;-72
2022/01/22 00:32:11;;;;;;;;;;;6.50;99.90;;;;;;6212384;23;20323;-73
2022/01/22 00:34:37;;;;;;;;;;;6.50;99.90;;;;;;6210110;23;19915;-70
2022/01/22 00:37:03;;;;;;;;;;;6.40;99.90;;;;;;6213301;23;19900;-72
2022/01/22 00:39:29;;;;;;;;;;;6.30;99.90;;;;;;6212874;23;20239;-72
2022/01/22 00:41:55;;;;;;;;;;;6.30;99.90;;;;;;6211635;23;19954;-71
2022/01/22 00:44:21;;;;;;;;;;;6.10;99.90;;;;;;6211754;23;20244;-70
2022/01/22 00:46:46;;;;;;;;;;;6.10;99.90;;;;;;6211808;23;19904;-71
2022/01/22 00:49:12;;;;;;;;;;;6.20;99.90;;;;;;6211157;23;19907;-72
2022/01/22 00:51:37;;;;;;;;;;;6.20;99.90;;;;;;6212283;23;19975;-70
2022/01/22 00:54:03;;;;;;;;;;;6.20;99.90;;;;;;6210531;23;19919;-70
2022/01/22 00:56:29;;;;;;;;;;;6.30;99.90;;;;;;6210884;23;19904;-72
2022/01/22 00:58:54;;;;;;;;;;;6.30;99.90;;;;;;6212303;23;20315;-70
2022/01/22 01:01:20;;;;;;;;;;;6.10;99.90;;;;;;6209352;23;19983;-71
2022/01/22 01:03:45;;;;;;;;;;;6.20;99.90;;;;;;6210210;23;20279;-71
2022/01/22 01:06:11;;;;;;;;;;;6.10;99.90;;;;;;6211199;23;19911;-71
2022/01/22 01:08:37;;;;;;;;;;;6.20;99.90;;;;;;6211548;23;19922;-70
2022/01/22 01:11:04;;;;;;;;;;;6.10;99.90;;;;;;6211661;23;19978;-71
2022/01/22 01:13:35;;;;;;;;;;;6.10;99.90;;;;;;6209219;23;19962;-69
2022/01/22 01:16:14;;;;;;;;;;;6.20;99.90;;;;;;6212365;23;19919;-70
2022/01/22 01:32:27;;;;;;;;;;;6.30;99.90;;;;;;6212633;23;19907;-70
2022/01/22 01:34:53;;;;;;;;;;;6.20;99.90;;;;;;6211501;23;19990;-70
2022/01/22 01:37:19;;;;;;;;;;;6.10;99.90;;;;;;6212175;23;20659;-71
2022/01/22 01:39:49;;;;;;;;;;;6.30;99.90;;;;;;6211491;23;19903;-70
2022/01/22 01:42:25;;;;;;;;;;;6.30;99.90;;;;;;6213529;23;20120;-70
2022/01/22 01:44:51;;;;;;;;;;;6.30;99.90;;;;;;6213044;23;19958;-71
2022/01/22 01:47:18;;;;;;;;;;;6.30;99.90;;;;;;6212059;23;19904;-70
2022/01/22 01:49:44;;;;;;;;;;;6.40;99.90;;;;;;6210964;23;19907;-74
2022/01/22 01:52:15;;;;;;;;;;;6.50;99.90;;;;;;6213256;23;19904;-70
2022/01/22 01:59:53;;;;;;;;;;;6.30;99.90;;;;;;6211883;23;19911;-71
2022/01/22 02:02:19;;;;;;;;;;;6.30;99.90;;;;;;6211105;23;19900;-70
2022/01/22 02:04:45;;;;;;;;;;;6.30;99.90;;;;;;6213254;23;19903;-71
2022/01/22 02:07:11;;;;;;;;;;;6.30;99.90;;;;;;6212442;23;19950;-70
2022/01/22 02:09:37;;;;;;;;;;;6.20;99.90;;;;;;6212732;23;19900;-71
2022/01/22 02:12:10;;;;;;;;;;;6.30;99.90;;;;;;6212208;23;19907;-73
2022/01/22 02:25:21;;;;;;;;;;;6.50;99.90;;;;;;6212061;23;19926;-71
2022/01/22 02:27:47;;;;;;;;;;;6.40;99.90;;;;;;6214399;23;19907;-70
2022/01/22 02:30:19;;;;;;;;;;;6.40;99.90;;;;;;6212186;23;19925;-71
2022/01/22 02:33:04;;;;;;;;;;;6.40;99.90;;;;;;6212838;23;19970;-71
2022/01/22 02:35:55;;;;;;;;;;;6.50;99.90;;;;;;6214323;23;19915;-71
2022/01/22 02:38:23;;;;;;;;;;;6.50;99.90;;;;;;6214144;23;19940;-70
2022/01/22 02:40:50;;;;;;;;;;;6.60;99.90;;;;;;6214033;23;20201;-70
2022/01/22 02:43:18;;;;;;;;;;;6.70;99.90;;;;;;6214389;23;20228;-70
2022/01/22 02:45:45;;;;;;;;;;;6.70;99.90;;;;;;6214133;23;19912;-71
2022/01/22 02:48:13;;;;;;;;;;;6.80;99.90;;;;;;6214457;23;19900;-70
2022/01/22 02:50:38;;;;;;;;;;;6.90;99.90;;;;;;6214162;23;20320;-70
2022/01/22 02:53:05;;;;;;;;;;;6.80;99.90;;;;;;6214255;23;19946;-72
2022/01/22 02:55:31;;;;;;;;;;;6.80;99.90;;;;;;6214360;23;19908;-72
2022/01/22 02:57:57;;;;;;;;;;;6.70;99.90;;;;;;6214367;23;20282;-72
2022/01/22 03:00:23;;;;;;;;;;;6.80;99.90;;;;;;6211558;23;19900;-71
2022/01/22 03:02:50;;;;;;;;;;;6.70;99.90;;;;;;6213947;23;19991;-70
2022/01/22 03:05:16;;;;;;;;;;;6.70;99.90;;;;;;6214607;23;20547;-72
2022/01/22 03:07:45;;;;;;;;;;;6.70;99.90;;;;;;6213639;23;19899;-70
2022/01/22 03:10:13;;;;;;;;;;;6.70;99.90;;;;;;6214506;23;19975;-70
2022/01/22 03:28:51;;;;;;;;;;;6.60;99.90;;;;;;6213583;23;19954;-72
2022/01/22 03:31:16;;;;;;;;;;;6.60;99.90;;;;;;6213273;23;19910;-70
2022/01/22 03:33:42;;;;;;;;;;;6.50;99.90;;;;;;6212810;23;19899;-71
2022/01/22 03:36:08;;;;;;;;;;;6.50;99.90;;;;;;6214006;23;19915;-71
2022/01/22 03:38:33;;;;;;;;;;;6.50;99.90;;;;;;6213821;23;19900;-70
2022/01/22 03:40:59;;;;;;;;;;;6.60;99.90;;;;;;6213738;23;19899;-70
2022/01/22 03:43:27;;;;;;;;;;;6.60;99.90;;;;;;6214628;23;19944;-72
2022/01/22 03:45:52;;;;;;;;;;;6.70;99.90;;;;;;6185068;23;19916;-72
2022/01/22 03:48:18;;;;;;;;;;;6.70;99.90;;;;;;6185018;23;19901;-70
2022/01/22 03:50:44;;;;;;;;;;;6.60;99.90;;;;;;6185639;23;20209;-71
2022/01/22 03:53:09;;;;;;;;;;;6.70;99.90;;;;;;6183666;23;19907;-71
2022/01/22 03:58:03;;;;;;;;;;;6.40;99.90;;;;;;6185626;23;19963;-70
2022/01/22 04:00:29;;;;;;;;;;;6.40;99.90;;;;;;6185070;23;20656;-71
2022/01/22 04:05:20;;;;;;;;;;;6.30;99.90;;;;;;6185024;23;19900;-70
2022/01/22 04:10:30;;;;;;;;;;;6.30;99.90;;;;;;6183695;23;19907;-71
2022/01/22 04:15:25;;;;;;;;;;;6.30;99.90;;;;;;6183411;23;19908;-71
2022/01/22 04:26:24;;;;;;;;;;;6.20;99.90;;;;;;6185861;23;19968;-71
2022/01/22 04:28:49;;;;;;;;;;;6.30;99.90;;;;;;6187307;23;20375;-70
2022/01/22 04:31:15;;;;;;;;;;;6.30;99.90;;;;;;6160272;23;19901;-72
2022/01/22 04:33:41;;;;;;;;;;;6.20;99.90;;;;;;6184642;23;19946;-70
2022/01/22 04:36:06;;;;;;;;;;;6.00;99.90;;;;;;6186120;23;20392;-72
2022/01/22 04:38:32;;;;;;;;;;;6.00;99.90;;;;;;6186332;23;19904;-70
2022/01/22 04:40:59;;;;;;;;;;;5.80;99.90;;;;;;6185646;23;19919;-71
2022/01/22 04:43:24;;;;;;;;;;;5.70;99.90;;;;;;6187034;23;19908;-71
2022/01/22 04:48:39;;;;;;;;;;;5.50;99.90;;;;;;6213645;23;19900;-70
2022/01/22 04:56:33;;;;;;;;;;;5.20;99.90;;;;;;6213621;23;19914;-70
2022/01/22 04:59:01;;;;;;;;;;;5.10;99.90;;;;;;6212210;23;20314;-69
2022/01/22 05:01:26;;;;;;;;;;;5.10;99.90;;;;;;6209112;23;19935;-71
2022/01/22 05:03:52;;;;;;;;;;;5.10;99.90;;;;;;6211770;23;19931;-70
2022/01/22 05:06:17;;;;;;;;;;;5.10;99.90;;;;;;6211622;23;19904;-71
2022/01/22 05:08:46;;;;;;;;;;;4.90;99.90;;;;;;6209943;23;19907;-70
2022/01/22 05:11:11;;;;;;;;;;;4.90;99.90;;;;;;6209675;23;19900;-71
2022/01/22 05:13:37;;;;;;;;;;;4.80;99.90;;;;;;6210792;23;20232;-70
2022/01/22 05:16:02;;;;;;;;;;;4.70;99.90;;;;;;6211636;23;19958;-71
2022/01/22 05:18:28;;;;;;;;;;;4.60;99.90;;;;;;6212266;23;19900;-71
2022/01/22 05:21:05;;;;;;;;;;;4.50;99.90;;;;;;6210812;23;19966;-71
2022/01/22 05:23:32;;;;;;;;;;;4.40;99.90;;;;;;6212848;23;19903;-71
2022/01/22 05:26:01;;;;;;;;;;;4.30;99.90;;;;;;6212816;23;19935;-72
2022/01/22 05:39:24;;;;;;;;;;;4.10;99.90;;;;;;6212980;23;19907;-71
2022/01/22 05:41:50;;;;;;;;;;;4.00;99.90;;;;;;6209804;23;20120;-71
2022/01/22 05:44:16;;;;;;;;;;;3.90;99.90;;;;;;6212315;23;20543;-71
2022/01/22 05:46:43;;;;;;;;;;;3.80;99.90;;;;;;6210508;23;19916;-70
2022/01/22 05:49:08;;;;;;;;;;;3.90;99.90;;;;;;6208118;23;19923;-71
2022/01/22 05:51:36;;;;;;;;;;;3.80;99.90;;;;;;6212552;23;20002;-71
2022/01/22 05:55:06;;;;;;;;;;;3.80;99.90;;;;;;6211766;23;20339;-71
2022/01/22 05:59:39;;;;;;;;;;;3.80;99.90;;;;;;6213767;23;19953;-72
2022/01/22 06:02:09;;;;;;;;;;;3.60;99.90;;;;;;6214967;23;19906;-71
2022/01/22 06:04:35;;;;;;;;;;;3.70;99.90;;;;;;6216541;23;19907;-71
2022/01/22 06:07:04;;;;;;;;;;;3.70;99.90;;;;;;6215149;23;20031;-72
2022/01/22 06:09:31;;;;;;;;;;;3.60;99.90;;;;;;6216555;23;19970;-72
2022/01/22 06:12:04;;;;;;;;;;;3.60;99.90;;;;;;6216717;23;19935;-72
2022/01/22 06:14:30;;;;;;;;;;;3.50;99.90;;;;;;6216192;23;19907;-71
2022/01/22 06:16:55;;;;;;;;;;;3.60;99.90;;;;;;6213145;23;20214;-71
2022/01/22 06:19:21;;;;;;;;;;;3.60;99.90;;;;;;6216231;23;20350;-73
2022/01/22 06:21:48;;;;;;;;;;;3.50;99.90;;;;;;6216696;23;19903;-71
2022/01/22 06:24:13;;;;;;;;;;;3.50;99.90;;;;;;6216913;23;19986;-70
2022/01/22 06:26:39;;;;;;;;;;;3.50;99.90;;;;;;6213669;23;19900;-71
2022/01/22 06:29:06;;;;;;;;;;;3.30;99.90;;;;;;6216836;23;20323;-71
2022/01/22 06:31:31;;;;;;;;;;;3.20;99.90;;;;;;6215673;23;19935;-71
2022/01/22 06:33:58;;;;;;;;;;;3.20;99.90;;;;;;6214498;23;19962;-70
2022/01/22 06:36:24;;;;;;;;;;;3.20;99.90;;;;;;6216248;23;19991;-70
2022/01/22 06:38:56;;;;;;;;;;;3.20;99.90;;;;;;6215489;23;19899;-71
2022/01/22 06:44:06;;;;;;;;;;;2.90;99.90;;;;;;6216098;23;19918;-70
2022/01/22 06:46:32;;;;;;;;;;;2.90;99.90;;;;;;6217345;23;20295;-71
2022/01/22 06:48:58;;;;;;;;;;;2.90;99.90;;;;;;6216857;23;19931;-72
2022/01/22 06:51:26;;;;;;;;;;;2.90;99.90;;;;;;6215345;23;20236;-72
2022/01/22 06:53:53;;;;;;;;;;;2.90;99.90;;;;;;6212506;23;19900;-73
2022/01/22 06:56:20;;;;;;;;;;;2.90;99.90;;;;;;6216503;23;19954;-72
2022/01/22 06:58:47;;;;;;;;;;;3.00;99.90;;;;;;6216910;23;20297;-70
2022/01/22 07:01:12;;;;;;;;;;;3.00;99.90;;;;;;6216184;23;19899;-72
2022/01/22 07:03:38;;;;;;;;;;;3.00;99.90;;;;;;6216914;23;19990;-71
2022/01/22 07:06:03;;;;;;;;;;;3.00;99.90;;;;;;6215920;23;19907;-74
2022/01/22 07:08:29;;;;;;;;;;;3.00;99.90;;;;;;6214603;23;19900;-70
2022/01/22 07:10:55;;;;;;;;;;;3.00;99.90;;;;;;6214822;23;19983;-70
2022/01/22 07:13:20;;;;;;;;;;;2.90;99.90;;;;;;6214262;23;19903;-71
2022/01/22 07:15:46;;;;;;;;;;;2.80;99.90;;;;;;6214284;23;19904;-70
2022/01/22 07:18:13;;;;;;;;;;;2.80;99.90;;;;;;6213898;23;19927;-71
2022/01/22 07:20:40;;;;;;;;;;;2.80;99.90;;;;;;6213331;23;19911;-71
2022/01/22 07:23:17;;;;;;;;;;;2.70;99.90;;;;;;6213058;23;19946;-70
2022/01/22 07:25:43;;;;;;;;;;;2.70;99.90;;;;;;6214431;23;20377;-71
2022/01/22 07:28:10;;;;;;;;;;;2.70;99.90;;;;;;6212820;23;19900;-71
2022/01/22 07:30:36;;;;;;;;;;;2.50;99.90;;;;;;6212829;23;19899;-71
2022/01/22 07:33:02;;;;;;;;;;;2.60;99.90;;;;;;6214101;23;19907;-73
2022/01/22 07:35:28;;;;;;;;;;;2.60;99.90;;;;;;6212787;23;19931;-70
2022/01/22 07:37:54;;;;;;;;;;;2.70;99.90;;;;;;6214350;23;19904;-71
2022/01/22 07:40:20;;;;;;;;;;;2.60;99.90;;;;;;6213169;23;19907;-72
2022/01/22 07:42:48;;;;;;;;;;;2.60;99.90;;;;;;6214931;23;19900;-71
2022/01/22 07:45:14;;;;;;;;;;;2.60;99.90;;;;;;6212067;23;19939;-71
2022/01/22 07:47:40;;;;;;;;;;;2.50;99.90;;;;;;6212872;23;19907;-71
2022/01/22 07:50:06;;;;;;;;;;;2.20;99.90;;;;;;6211711;23;19900;-71
2022/01/22 07:52:31;;;;;;;;;;;2.00;99.90;;;;;;6213545;23;19900;-70
2022/01/22 07:54:57;;;;;;;;;;;2.00;99.90;;;;;;6212624;23;19926;-70
2022/01/22 07:57:23;;;;;;;;;;;1.90;99.90;;;;;;6211782;23;20575;-69
2022/01/22 07:59:48;;;;;;;;;;;1.90;99.90;;;;;;6213891;23;19900;-71
2022/01/22 08:02:15;;;;;;;;;;;2.00;99.90;;;;;;6212721;23;19955;-72
2022/01/22 08:04:40;;;;;;;;;;;2.00;99.90;;;;;;6214704;23;19900;-72
2022/01/22 08:07:06;;;;;;;;;;;2.10;99.90;;;;;;6213697;23;19946;-70
2022/01/22 08:09:32;;;;;;;;;;;2.00;99.90;;;;;;6213500;23;19900;-71
2022/01/22 08:11:59;;;;;;;;;;;1.90;99.90;;;;;;6213971;23;19915;-71
2022/01/22 08:14:24;;;;;;;;;;;1.70;99.90;;;;;;6212928;23;19935;-70
2022/01/22 08:16:50;;;;;;;;;;;1.60;99.90;;;;;;6212186;23;19904;-71
2022/01/22 08:19:17;;;;;;;;;;;1.50;99.90;;;;;;6213948;23;19910;-72
2022/01/22 08:21:46;;;;;;;;;;;1.60;99.90;;;;;;6212250;23;19927;-70
2022/01/22 08:24:12;;;;;;;;;;;1.80;99.90;;;;;;6213626;23;19903;-71
2022/01/22 08:26:43;;;;;;;;;;;1.90;99.90;;;;;;6211503;23;19919;-72
2022/01/22 08:29:09;;;;;;;;;;;2.00;99.90;;;;;;6211725;23;19911;-72
2022/01/22 08:36:46;;;;;;;;;;;2.20;99.90;;;;;;6223335;23;19914;-70
2022/01/22 08:39:13;;;;;;;;;;;2.20;99.90;;;;;;6225641;23;19899;-71
2022/01/22 08:41:38;;;;;;;;;;;2.20;99.90;;;;;;6224224;23;19931;-70
2022/01/22 08:44:05;;;;;;;;;;;2.20;99.90;;;;;;6220072;23;19916;-70
2022/01/22 08:46:31;;;;;;;;;;;2.30;99.90;;;;;;6218648;23;19940;-70
2022/01/22 08:48:57;;;;;;;;;;;2.30;99.90;;;;;;6223887;23;19944;-69
2022/01/22 08:51:23;;;;;;;;;;;2.40;99.90;;;;;;6223271;23;19907;-69
2022/01/22 08:53:48;;;;;;;;;;;2.50;99.90;;;;;;6218271;23;19903;-70
2022/01/22 08:56:14;;;;;;;;;;;2.50;99.90;;;;;;6218677;23;19927;-71
2022/01/22 08:58:40;;;;;;;;;;;2.50;99.90;;;;;;6218625;23;19935;-71
2022/01/22 09:01:06;;;;;;;;;;;2.50;99.90;;;;;;6216976;23;19903;-72
2022/01/22 09:03:32;;;;;;;;;;;2.50;99.90;;;;;;6218283;23;19915;-72
2022/01/22 09:05:58;;;;;;;;;;;2.60;99.90;;;;;;6222056;23;19904;-73
2022/01/22 09:08:24;;;;;;;;;;;2.60;99.90;;;;;;6220895;23;20289;-72
2022/01/22 09:10:50;;;;;;;;;;;2.60;99.90;;;;;;6225978;23;19900;-71
2022/01/22 09:13:16;;;;;;;;;;;2.70;99.90;;;;;;6215586;23;19999;-71
2022/01/22 09:15:42;;;;;;;;;;;2.70;99.90;;;;;;6215104;23;19911;-71
2022/01/22 09:18:08;;;;;;;;;;;2.60;99.90;;;;;;6216624;23;20331;-71
2022/01/22 09:23:03;;;;;;;;;;;2.70;99.90;;;;;;6212730;23;19900;-71
2022/01/22 09:25:29;;;;;;;;;;;2.80;99.90;;;;;;6217071;23;19907;-70
2022/01/22 09:27:54;;;;;;;;;;;2.90;99.90;;;;;;6218273;23;19900;-71
2022/01/22 09:30:20;;;;;;;;;;;3.10;99.90;;;;;;6220121;23;20320;-71
2022/01/22 09:32:46;;;;;;;;;;;3.20;99.90;;;;;;6220761;23;19907;-71
2022/01/22 09:35:11;;;;;;;;;;;3.30;99.90;;;;;;6222521;23;19943;-71
2022/01/22 09:37:38;;;;;;;;;;;3.30;99.90;;;;;;6224091;23;19915;-69
2022/01/22 09:40:04;;;;;;;;;;;3.40;99.90;;;;;;6223359;23;19904;-71
2022/01/22 09:42:30;;;;;;;;;;;3.50;99.90;;;;;;6224833;23;19911;-71
2022/01/22 09:44:56;;;;;;;;;;;3.60;99.90;;;;;;6224615;23;19916;-71
2022/01/22 09:47:21;;;;;;;;;;;3.50;99.90;;;;;;6221292;23;19935;-71
2022/01/22 09:49:47;;;;;;;;;;;3.60;99.90;;;;;;6218691;23;19904;-71
2022/01/22 09:52:13;;;;;;;;;;;3.70;99.90;;;;;;6217872;23;20267;-70
2022/01/22 09:54:38;;;;;;;;;;;3.80;99.90;;;;;;6213883;23;19914;-71
2022/01/22 09:57:09;;;;;;;;;;;3.90;99.90;;;;;;6217048;23;19915;-71
2022/01/22 09:59:34;;;;;;;;;;;4.00;99.90;;;;;;6217560;23;20033;-70
2022/01/22 10:02:11;;;;;;;;;;;4.00;99.90;;;;;;6213764;23;20296;-72
2022/01/22 10:04:37;;;;;;;;;;;4.10;99.90;;;;;;6216907;23;19900;-70
2022/01/22 10:07:03;;;;;;;;;;;4.20;99.90;;;;;;6215309;23;19954;-70
2022/01/22 10:09:36;;;;;;;;;;;4.30;99.90;;;;;;6216962;23;19907;-71
2022/01/22 10:12:12;;;;;;;;;;;4.40;99.90;;;;;;6218853;23;19907;-70
2022/01/22 10:14:56;;;;;;;;;;;4.50;99.90;;;;;;6216788;23;19915;-70
2022/01/22 10:17:41;;;;;;;;;;;4.50;99.90;;;;;;6218150;23;19903;-71
2022/01/22 10:20:29;;;;;;;;;;;4.80;99.90;;;;;;6217508;23;19906;-70
2022/01/22 10:22:55;;;;;;;;;;;4.80;99.90;;;;;;6217482;23;19900;-69
2022/01/22 10:25:28;;;;;;;;;;;4.80;99.90;;;;;;6215485;23;19927;-70
2022/01/22 10:27:55;;;;;;;;;;;4.80;99.90;;;;;;6216654;23;19902;-71
2022/01/22 10:30:21;;;;;;;;;;;5.00;99.90;;;;;;6217135;23;19907;-70
2022/01/22 10:35:16;;;;;;;;;;;5.20;99.90;;;;;;6216722;23;19904;-71
2022/01/22 10:37:42;;;;;;;;;;;5.10;99.90;;;;;;6217181;23;20321;-70
2022/01/22 10:40:18;;;;;;;;;;;5.10;99.90;;;;;;6215897;23;19942;-71
2022/01/22 10:42:44;;;;;;;;;;;5.20;99.90;;;;;;6217712;23;19900;-71
2022/01/22 10:45:14;;;;;;;;;;;5.40;99.90;;;;;;6215957;23;19922;-71
2022/01/22 10:47:41;;;;;;;;;;;5.50;99.90;;;;;;6214079;23;19904;-71
2022/01/22 10:50:18;;;;;;;;;;;5.50;99.90;;;;;;6216071;23;20282;-70
2022/01/22 10:52:50;;;;;;;;;;;5.40;99.90;;;;;;6217567;23;19939;-70
2022/01/22 10:55:16;;;;;;;;;;;5.40;99.90;;;;;;6214628;23;19954;-70
2022/01/22 10:58:02;;;;;;;;;;;5.40;99.90;;;;;;6217088;23;19908;-71
2022/01/22 11:00:27;;;;;;;;;;;5.40;99.90;;;;;;6214779;23;19907;-70
2022/01/22 11:02:53;;;;;;;;;;;5.50;99.90;;;;;;6214448;23;19900;-71
2022/01/22 11:05:35;;;;;;;;;;;5.60;99.90;;;;;;6215349;23;19900;-71
2022/01/22 11:08:08;;;;;;;;;;;5.90;99.90;;;;;;6213157;23;19904;-71
2022/01/22 11:10:33;;;;;;;;;;;6.00;99.90;;;;;;6215216;23;19908;-70
2022/01/22 11:12:59;;;;;;;;;;;6.30;99.90;;;;;;6215537;23;19955;-71
2022/01/22 11:15:25;;;;;;;;;;;6.40;99.90;;;;;;6213555;23;20283;-70
2022/01/22 11:17:51;;;;;;;;;;;6.60;99.90;;;;;;6214965;23;19904;-71
2022/01/22 11:20:17;;;;;;;;;;;6.60;99.90;;;;;;6214931;23;20221;-70
2022/01/22 11:22:43;;;;;;;;;;;6.50;99.90;;;;;;6213630;23;19907;-72
2022/01/22 11:25:10;;;;;;;;;;;6.40;99.90;;;;;;6215185;23;19907;-71
2022/01/22 11:27:36;;;;;;;;;;;6.50;99.90;;;;;;6211427;23;20200;-74
2022/01/22 11:30:05;;;;;;;;;;;6.60;99.90;;;;;;6213087;23;19900;-72
2022/01/22 11:32:40;;;;;;;;;;;6.60;99.90;;;;;;6214242;23;19983;-72
2022/01/22 11:35:07;;;;;;;;;;;6.60;99.90;;;;;;6209849;23;20380;-72
2022/01/22 11:37:45;;;;;;;;;;;6.70;99.90;;;;;;6213212;23;19915;-71
2022/01/22 11:40:12;;;;;;;;;;;6.80;99.90;;;;;;6212288;23;19943;-72
2022/01/22 11:42:55;;;;;;;;;;;7.00;99.90;;;;;;6213406;23;19923;-72
2022/01/22 11:45:43;;;;;;;;;;;7.00;99.90;;;;;;6213855;23;19912;-71
2022/01/22 11:48:15;;;;;;;;;;;7.10;99.90;;;;;;6212768;23;19908;-72
2022/01/22 11:50:41;;;;;;;;;;;7.00;99.90;;;;;;6213826;23;19900;-74
2022/01/22 11:53:25;;;;;;;;;;;6.90;99.90;;;;;;6213301;23;19927;-71
2022/01/22 11:56:10;;;;;;;;;;;7.00;99.90;;;;;;6210059;23;20342;-73
2022/01/22 11:58:54;;;;;;;;;;;7.00;99.90;;;;;;6212821;23;20534;-72
2022/01/22 12:01:39;;;;;;;;;;;7.10;99.90;;;;;;6211943;23;19973;-72
2022/01/22 12:04:05;;;;;;;;;;;7.20;99.90;;;;;;6212963;23;19978;-71
2022/01/22 12:06:31;;;;;;;;;;;7.30;99.90;;;;;;6211868;23;19986;-71
2022/01/22 12:09:04;;;;;;;;;;;7.40;99.90;;;;;;6211004;23;20332;-71
2022/01/22 12:14:44;;;;;;;;;;;7.20;99.90;;;;;;6210771;23;19911;-71
2022/01/22 12:17:14;;;;;;;;;;;7.20;99.90;;;;;;6210325;23;19911;-72
2022/01/22 12:19:47;;;;;;;;;;;7.20;99.90;;;;;;6211290;23;19900;-71
2022/01/22 12:22:36;;;;;;;;;;;7.20;99.90;;;;;;6212871;23;20360;-70
2022/01/22 12:25:08;;;;;;;;;;;7.20;99.90;;;;;;6195220;23;19939;-72
2022/01/22 12:27:44;;;;;;;;;;;7.30;99.90;;;;;;6211650;23;19900;-69
2022/01/22 12:30:10;;;;;;;;;;;7.20;99.90;;;;;;6210861;23;20236;-71
2022/01/22 12:32:45;;;;;;;;;;;7.20;99.90;;;;;;6212527;23;19931;-70
2022/01/22 12:35:16;;;;;;;;;;;7.40;99.90;;;;;;6211887;23;19958;-71
2022/01/22 12:37:45;;;;;;;;;;;7.40;99.90;;;;;;6212565;23;19915;-69
2022/01/22 12:40:12;;;;;;;;;;;7.40;99.90;;;;;;6212637;23;19900;-69
2022/01/22 12:42:53;;;;;;;;;;;7.40;99.90;;;;;;6212314;23;19935;-72
2022/01/22 12:45:20;;;;;;;;;;;7.20;99.90;;;;;;6209586;23;19923;-71
2022/01/22 12:47:49;;;;;;;;;;;7.20;99.90;;;;;;6210222;23;19900;-72
2022/01/22 12:50:15;;;;;;;;;;;7.30;99.90;;;;;;6213212;23;19904;-71
2022/01/22 12:52:45;;;;;;;;;;;7.20;99.90;;;;;;6213964;23;19962;-70
2022/01/22 13:10:26;;;;;;;0.00;0.00;;;7.60;99.90;;;;;;6213385;22;1416112;-72
2022/01/22 13:12:53;;;;;;;0.00;0.00;;;7.50;99.90;;;;;;6253895;22;20004;-71
2022/01/22 13:15:19;;;;;;;0.00;0.00;;;7.50;99.90;;;;;;6222764;23;20088;-68
2022/01/22 13:17:51;;;;;;;0.00;0.00;;;7.40;99.90;;;;;;6251345;22;20087;-69
2022/01/22 13:20:23;;;;;;;0.00;0.00;;;7.40;99.90;;;;;;6251803;22;20035;-69
2022/01/22 13:22:49;;;;;;;0.00;0.00;;;7.50;99.90;;;;;;6252565;22;20000;-69
2022/01/22 13:25:19;;;;;;;0.00;0.00;;;7.70;99.90;;;;;;6254736;22;20030;-74
2022/01/22 13:28:00;;;;;;;0.00;0.00;;;7.60;99.90;;;;;;6248433;22;20012;-73
2022/01/22 13:30:37;;;;;;;0.00;0.00;;;7.50;99.90;;;;;;6249991;22;19996;-75
2022/01/22 13:33:33;;;;;;;0.00;0.00;;;7.40;99.90;;;;;;6252591;22;19995;-74
2022/01/22 13:36:12;;;;;;;0.00;0.00;;;7.30;99.90;;;;;;6250202;22;20054;-76
2022/01/22 13:49:41;;;;;;;0.00;0.00;;;7.40;99.90;;;;;;6250511;23;20348;-73
2022/01/22 13:52:09;;;;;;;0.00;0.00;;;7.30;99.90;;;;;;6251947;22;20000;-71
2022/01/22 13:54:57;;;;;;;0.00;0.00;;;7.40;99.90;;;;;;6250906;22;20000;-69
2022/01/22 13:57:30;;;;;;;0.00;0.00;;;7.30;99.90;;;;;;6252859;22;20110;-70
2022/01/22 13:59:57;;;;;;;0.00;0.00;;;7.20;99.90;;;;;;6249815;22;20004;-69
2022/01/22 14:02:36;;;;;;;0.00;0.00;;;7.30;99.90;;;;;;6250702;22;20085;-70
2022/01/22 14:05:09;;;;;;;0.00;0.00;;;7.40;99.90;;;;;;6250154;22;20124;-70
2022/01/22 14:07:39;;;;;;;0.00;0.00;;;7.60;99.90;;;;;;6244943;22;20046;-70
2022/01/22 14:10:15;;;;;;;0.00;0.00;;;7.60;99.90;;;;;;6242872;22;20436;-72
2022/01/22 14:12:42;;;;;;;0.00;0.00;;;7.60;99.90;;;;;;6239083;23;20065;-69
2022/01/22 14:15:11;;;;;;;0.00;0.00;;;7.50;99.90;;;;;;6241918;22;20000;-70
2022/01/22 14:17:54;;;;;;;0.00;0.00;;;7.60;99.90;;;;;;6241012;23;20008;-69
2022/01/22 14:20:27;;;;;;;0.00;0.00;;;7.60;99.90;;;;;;6241637;22;20000;-69
2022/01/22 14:22:56;;;;;;;0.00;0.00;;;7.70;99.90;;;;;;6243303;22;20039;-69
2022/01/22 14:25:23;;;;;;;0.00;0.00;;;7.90;99.90;;;;;;6241605;23;20004;-70
2022/01/22 14:28:15;;;;;;;0.00;0.00;;;8.10;99.90;;;;;;6242604;22;20076;-70
2022/01/22 14:30:46;;;;;;;0.00;0.00;;;8.20;99.90;;;;;;6238469;22;20004;-70
2022/01/22 14:33:18;;;;;;;0.00;0.00;;;8.20;99.90;;;;;;6241540;22;20138;-69
2022/01/22 14:36:05;;;;;;;0.00;0.00;;;8.20;99.90;;;;;;6240981;23;20001;-69
2022/01/22 14:38:42;;;;;;;0.00;0.00;;;8.30;99.90;;;;;;6242545;22;20081;-68
2022/01/22 14:47:04;;;;;;;0.00;0.00;;;8.40;99.90;;;;;;6241644;22;20479;-70
2022/01/22 14:49:40;;;;;;;0.00;0.00;;;8.40;99.90;;;;;;6239803;23;20011;-70
2022/01/22 14:52:08;;;;;;;0.00;0.00;;;8.30;99.90;;;;;;6240094;22;20099;-71
2022/01/22 14:54:37;;;;;;;0.00;0.00;;;8.30;99.90;;;;;;6239009;23;20004;-71
2022/01/22 14:57:05;;;;;;;0.00;0.00;;;8.30;99.90;;;;;;6243080;22;20004;-72
2022/01/22 14:59:32;;;;;;;0.00;0.00;;;8.10;99.90;;;;;;6242664;22;20027;-71
2022/01/22 15:01:58;;;;;;;0.00;0.00;;;8.00;99.90;;;;;;6239826;23;20027;-70
2022/01/22 15:04:23;;;;;;;;;;;7.80;99.90;;;;;;6241205;23;20030;-70
2022/01/22 15:06:49;;;;;;;0.00;0.00;;;7.40;99.90;;;;;;6243675;23;19899;-71
2022/01/22 15:09:16;;;;;;;0.00;0.00;;;7.10;99.90;;;;;;6243992;22;20019;-71
2022/01/22 15:11:42;;;;;;;0.00;0.00;;;7.20;99.90;;;;;;6242077;23;20001;-71
2022/01/22 15:14:08;;;;;;;0.00;0.00;;;7.30;99.90;;;;;;6242735;22;20058;-72
2022/01/22 15:16:44;;;;;;;;;;;7.30;99.90;;;;;;6243653;23;20004;-71
2022/01/22 15:19:28;;;;;;;0.00;0.00;;;7.40;99.90;;;;;;6243544;22;19966;-71
2022/01/22 15:21:55;;;;;;;0.00;0.00;;;7.30;99.90;;;;;;6243781;22;20004;-72
2022/01/22 15:24:20;;;;;;;0.00;0.00;;;7.30;99.90;;;;;;6245647;22;20031;-70
2022/01/22 15:26:47;;;;;;;0.00;0.00;;;7.20;99.90;;;;;;6244816;22;20329;-71
2022/01/22 15:29:17;;;;;;;0.00;0.00;;;7.20;99.90;;;;;;6244413;22;20000;-70
2022/01/22 15:36:55;;;;;;;0.00;0.00;;;7.30;99.90;;;;;;6242586;22;20011;-70
2022/01/22 15:39:20;;;;;;;0.00;0.00;;;7.30;99.90;;;;;;6243391;22;20042;-71
2022/01/22 15:41:47;;;;;;;0.00;0.00;;;7.30;99.90;;;;;;6243665;23;20003;-73
2022/01/22 15:44:12;;;;;;;0.00;0.00;;;7.20;99.90;;;;;;6244412;22;20060;-70
2022/01/22 15:46:44;;;;;;;0.00;0.00;;;7.20;99.90;;;;;;6242527;23;20026;-70
2022/01/22 15:49:23;;;;;;;0.00;0.00;;;7.20;99.90;;;;;;6241860;22;19993;-71
2022/01/22 15:51:52;;;;;;;0.00;0.00;;;7.30;99.90;;;;;;6243220;22;20000;-69
2022/01/22 15:54:19;;;;;;;0.00;0.00;;;7.30;99.90;;;;;;6242063;22;20450;-71
2022/01/22 15:56:45;;;;;;;0.00;0.00;;;7.40;99.90;;;;;;6242569;22;20014;-71
2022/01/22 15:59:13;;;;;;;0.00;0.00;;;7.30;99.90;;;;;;6242575;22;20086;-70
2022/01/22 16:01:41;;;;;;;0.00;0.00;;;7.20;99.90;;;;;;6241369;22;20420;-70
2022/01/22 16:04:10;;;;;;;0.00;0.00;;;7.10;99.90;;;;;;6241035;22;20054;-70
2022/01/22 16:07:20;;;;;;;;;;;7.20;99.90;;;;;;6241991;22;20380;-69
2022/01/22 16:09:28;;;;;;;0.00;0.00;;;7.40;99.90;;;;;;6222645;23;19969;-71
2022/01/22 16:11:54;;;;;;;0.00;0.00;;;7.40;99.90;;;;;;6240249;22;20004;-70
2022/01/22 16:14:20;;;;;;;0.00;0.00;;;7.20;99.90;;;;;;6241216;22;19996;-70
2022/01/22 16:16:47;;;;;;;0.00;0.00;;;7.20;99.90;;;;;;6240630;23;20008;-71
2022/01/22 16:19:15;;;;;;;0.00;0.00;;;7.20;99.90;;;;;;6242320;22;20344;-70
2022/01/22 16:21:42;;;;;;;0.00;0.00;;;7.20;99.90;;;;;;6242886;22;19999;-70
2022/01/22 16:24:10;;;;;;;0.00;0.00;;;7.10;99.90;;;;;;6242329;22;19992;-70
2022/01/22 16:26:36;;;;;;;0.00;0.00;;;7.10;99.90;;;;;;6239552;22;19996;-71
2022/01/22 16:29:02;;;;;;;;;;;7.10;99.90;;;;;;6240869;22;20448;-72
2022/01/22 16:31:31;;;;;;;0.00;0.00;;;7.10;99.90;;;;;;6241824;22;19899;-72
2022/01/22 16:34:04;;;;;;;0.00;0.00;;;7.10;99.90;;;;;;6240292;23;19996;-72
2022/01/22 16:36:30;;;;;;;0.00;0.00;;;7.00;99.90;;;;;;6242467;22;20054;-71
2022/01/22 16:39:00;;;;;;;0.00;0.00;;;7.00;99.90;;;;;;6243027;22;20328;-73